Time;durP1;ratioP1;P1;durP2;ratioP2;P2;SDS_P1;SDS_P2;PMS_P1;PMS_P2;Temp;Humidity;BMP_temperature;BMP_pressure;BME280_temperature;BME280_humidity;BME280_pressure;Samples;Min_cycle;Max_cycle;Signal;HPM_P1;HPM_P2
2023/05/09 00:01:38;;;;;;;3.60;2.83;;;;;;;12.73;42.83;101812.97;5005404;28;20042;-73
2023/05/09 00:04:04;;;;;;;4.15;3.42;;;;;;;12.60;42.85;101813.38;5004632;28;20042;-73
2023/05/09 00:06:31;;;;;;;7.20;4.07;;;;;;;12.62;42.63;101811.50;4999513;28;20844;-73
2023/05/09 00:08:57;;;;;;;3.75;3.35;;;;;;;12.75;42.51;101812.00;5013565;28;20867;-72
2023/05/09 00:11:22;;;;;;;4.20;3.38;;;;;;;12.56;42.78;101811.75;5020602;28;20036;-74
2023/05/09 00:13:49;;;;;;;3.53;3.15;;;;;;;12.35;43.55;101804.56;5021330;28;20049;-73
2023/05/09 00:16:16;;;;;;;5.57;3.90;;;;;;;12.48;43.47;101800.66;5038878;28;20040;-74
2023/05/09 00:18:42;;;;;;;4.50;3.30;;;;;;;12.42;43.24;101800.84;5003500;28;20355;-74
2023/05/09 00:21:09;;;;;;;5.93;3.38;;;;;;;12.55;43.01;101798.69;5025431;28;20124;-73
2023/05/09 00:23:38;;;;;;;4.45;3.38;;;;;;;12.52;42.97;101799.63;5020318;28;20048;-73
2023/05/09 00:26:04;;;;;;;3.17;2.83;;;;;;;12.42;43.40;101803.47;5022163;28;20067;-71
2023/05/09 00:28:29;;;;;;;3.25;2.95;;;;;;;12.47;43.27;101796.31;5020953;28;20926;-72
2023/05/09 00:30:55;;;;;;;5.05;3.95;;;;;;;12.27;43.36;101795.22;5004712;28;20041;-71
2023/05/09 00:33:21;;;;;;;4.82;3.67;;;;;;;12.26;43.46;101796.09;5019717;28;20041;-73
2023/05/09 00:35:47;;;;;;;9.00;3.38;;;;;;;12.32;43.23;101788.97;5022141;28;20597;-73
2023/05/09 00:38:12;;;;;;;4.68;2.92;;;;;;;12.26;43.61;101782.16;5023581;28;20051;-73
2023/05/09 00:40:38;;;;;;;4.63;3.28;;;;;;;12.21;43.66;101779.66;5016251;28;20725;-73
2023/05/09 00:43:04;;;;;;;4.65;3.38;;;;;;;12.25;43.54;101781.28;5019334;28;20240;-72
2023/05/09 00:45:30;;;;;;;9.07;3.38;;;;;;;12.16;43.57;101771.13;5011570;28;20064;-71
2023/05/09 00:47:56;;;;;;;7.00;4.50;;;;;;;12.15;43.49;101769.38;5021197;28;20052;-72
2023/05/09 00:50:23;;;;;;;5.43;3.40;;;;;;;12.23;43.57;101763.91;5022317;28;20047;-72
2023/05/09 00:52:50;;;;;;;6.10;3.55;;;;;;;12.10;43.71;101760.81;5022207;28;20037;-72
2023/05/09 00:55:16;;;;;;;5.45;4.03;;;;;;;12.14;43.45;101759.81;5013093;28;20025;-72
2023/05/09 00:57:42;;;;;;;6.03;4.13;;;;;;;12.09;43.73;101761.75;5006918;28;20033;-73
2023/05/09 01:00:11;;;;;;;3.92;3.38;;;;;;;12.16;43.66;101755.38;5025634;28;20044;-77
2023/05/09 01:02:42;;;;;;;7.75;3.42;;;;;;;12.08;43.71;101753.00;5021860;28;20037;-76
2023/05/09 01:05:08;;;;;;;3.97;3.47;;;;;;;11.98;43.87;101745.50;5017627;28;20033;-80
2023/05/09 01:07:51;;;;;;;8.40;3.53;;;;;;;11.88;43.91;101740.53;5022966;28;20045;-67
2023/05/09 01:10:34;;;;;;;4.15;3.35;;;;;;;11.80;44.29;101742.56;5001659;28;20044;-69
2023/05/09 01:13:08;;;;;;;5.50;3.78;;;;;;;11.72;44.30;101741.91;5000070;28;20041;-69
2023/05/09 01:15:56;;;;;;;9.02;3.85;;;;;;;11.63;44.66;101734.34;4999861;28;20033;-77
2023/05/09 01:18:44;;;;;;;6.38;4.63;;;;;;;11.37;45.03;101743.81;5010046;28;20056;-75
2023/05/09 01:21:14;;;;;;;6.40;4.25;;;;;;;11.53;44.64;101732.88;5020184;28;20040;-76
2023/05/09 01:23:43;;;;;;;4.47;3.58;;;;;;;11.42;45.07;101736.69;5012523;28;20049;-75
2023/05/09 01:26:31;;;;;;;5.15;3.88;;;;;;;11.07;45.89;101729.88;5019817;28;20041;-74
2023/05/09 01:29:22;;;;;;;4.40;3.35;;;;;;;11.30;45.17;101737.06;5002609;28;20041;-71
2023/05/09 01:31:49;;;;;;;5.97;4.50;;;;;;;11.27;45.17;101724.06;5012390;28;20040;-72
2023/05/09 01:34:17;;;;;;;5.75;3.33;;;;;;;11.33;44.60;101723.91;5002677;28;20188;-71
2023/05/09 01:36:43;;;;;;;5.65;3.80;;;;;;;11.18;45.10;101712.09;5017953;28;20553;-72
2023/05/09 01:39:13;;;;;;;5.32;3.85;;;;;;;11.05;45.36;101714.22;5011528;28;20049;-73
2023/05/09 01:41:38;;;;;;;4.72;3.78;;;;;;;11.20;45.26;101714.69;5016968;28;20445;-72
2023/05/09 01:44:08;;;;;;;6.30;3.92;;;;;;;11.11;45.26;101704.50;5021508;28;20044;-75
2023/05/09 01:46:35;;;;;;;6.40;3.40;;;;;;;11.12;45.23;101701.81;5036053;28;20041;-75
2023/05/09 01:49:01;;;;;;;5.38;4.00;;;;;;;11.06;45.22;101699.38;5001376;28;20038;-75
2023/05/09 01:51:28;;;;;;;4.70;3.95;;;;;;;10.93;45.50;101703.22;4982987;28;20052;-75
2023/05/09 01:53:55;;;;;;;7.25;3.85;;;;;;;11.02;45.40;101700.38;4997271;28;20049;-76
2023/05/09 01:56:22;;;;;;;6.85;3.97;;;;;;;11.02;45.73;101698.63;5011307;28;20318;-74
2023/05/09 01:58:50;;;;;;;5.18;3.92;;;;;;;10.86;45.62;101697.34;5008506;28;20042;-73
2023/05/09 02:01:16;;;;;;;4.45;3.10;;;;;;;10.86;45.41;101694.72;4994739;28;20270;-73
2023/05/09 02:03:46;;;;;;;4.65;3.60;;;;;;;11.00;44.86;101692.56;4997135;28;20045;-72
2023/05/09 02:06:14;;;;;;;5.07;3.70;;;;;;;10.95;45.01;101694.47;4991151;28;21525;-72
2023/05/09 02:08:41;;;;;;;5.03;4.53;;;;;;;10.94;45.09;101697.97;4991956;28;20049;-72
2023/05/09 02:11:07;;;;;;;7.82;4.03;;;;;;;10.80;45.71;101700.09;5005650;28;20029;-72
2023/05/09 02:13:33;;;;;;;4.97;3.92;;;;;;;10.89;45.53;101693.78;4997918;28;20045;-72
2023/05/09 02:16:00;;;;;;;4.50;4.05;;;;;;;10.80;45.45;101700.09;4998504;28;20816;-72
2023/05/09 02:18:26;;;;;;;3.80;3.50;;;;;;;10.77;45.39;101692.31;5005354;28;20515;-72
2023/05/09 02:20:51;;;;;;;4.68;3.50;;;;;;;10.70;45.37;101693.41;5021294;28;20041;-70
2023/05/09 02:23:18;;;;;;;7.75;3.90;;;;;;;10.52;45.75;101686.91;5016528;28;20055;-72
2023/05/09 02:25:45;;;;;;;4.47;3.95;;;;;;;10.49;45.63;101690.47;5005363;28;20124;-72
2023/05/09 02:28:12;;;;;;;5.63;3.88;;;;;;;10.31;46.17;101681.34;5012878;28;20033;-72
2023/05/09 02:30:43;;;;;;;4.28;3.15;;;;;;;10.39;45.71;101678.53;4998537;28;20033;-73
2023/05/09 02:33:11;;;;;;;7.63;3.53;;;;;;;10.17;46.03;101678.25;4997197;28;20139;-74
2023/05/09 02:35:40;;;;;;;4.63;2.70;;;;;;;10.22;45.95;101672.00;5000022;28;20340;-73
2023/05/09 02:38:06;;;;;;;4.93;3.40;;;;;;;10.20;46.05;101684.25;5002585;28;20116;-73
2023/05/09 02:40:34;;;;;;;6.10;3.03;;;;;;;10.07;46.00;101682.84;5017699;28;20059;-73
2023/05/09 02:42:59;;;;;;;3.78;3.42;;;;;;;10.19;45.57;101682.53;5012864;28;20681;-73
2023/05/09 02:45:26;;;;;;;4.68;3.35;;;;;;;10.24;45.66;101684.19;5004038;28;20029;-72
2023/05/09 02:47:51;;;;;;;5.72;3.20;;;;;;;10.23;45.48;101678.06;4999684;28;20051;-73
2023/05/09 02:50:17;;;;;;;4.75;3.65;;;;;;;10.11;45.50;101675.78;5001051;28;20112;-73
2023/05/09 02:52:43;;;;;;;4.28;3.38;;;;;;;10.09;45.71;101672.34;4998644;28;20124;-74
2023/05/09 02:55:09;;;;;;;3.55;3.00;;;;;;;9.92;45.88;101677.97;4999554;28;20049;-73
2023/05/09 02:57:37;;;;;;;5.43;3.13;;;;;;;10.05;45.66;101673.31;4995171;28;20165;-73
2023/05/09 03:00:10;;;;;;;5.00;3.20;;;;;;;9.88;46.06;101672.00;5020532;28;20033;-72
2023/05/09 03:02:37;;;;;;;4.45;3.35;;;;;;;9.84;46.25;101672.97;5018144;28;20029;-73
2023/05/09 03:05:04;;;;;;;3.65;2.78;;;;;;;9.96;45.97;101670.03;5016107;28;20192;-72
2023/05/09 03:07:32;;;;;;;4.63;2.67;;;;;;;9.91;45.73;101663.22;5011564;28;20041;-72
2023/05/09 03:09:58;;;;;;;4.75;3.25;;;;;;;9.82;45.96;101663.47;5000583;28;20034;-73
2023/05/09 03:12:24;;;;;;;4.47;2.97;;;;;;;9.63;46.09;101660.38;4991102;28;20029;-72
2023/05/09 03:14:52;;;;;;;4.07;3.13;;;;;;;9.82;46.12;101653.84;4994101;28;20045;-67
2023/05/09 03:17:20;;;;;;;7.18;2.33;;;;;;;9.89;45.54;101652.81;4991085;28;20034;-67
2023/05/09 03:19:47;;;;;;;2.75;2.50;;;;;;;9.77;45.65;101656.56;5016711;28;20587;-66
2023/05/09 03:22:13;;;;;;;9.13;3.17;;;;;;;9.76;45.91;101656.59;5016728;28;20844;-67
2023/05/09 03:24:45;;;;;;;3.53;2.70;;;;;;;9.70;45.79;101652.38;4994402;28;20540;-72
2023/05/09 03:27:11;;;;;;;8.18;3.42;;;;;;;9.80;45.71;101651.28;4999737;28;20065;-72
2023/05/09 03:29:36;;;;;;;4.03;3.22;;;;;;;9.75;45.73;101653.13;4998231;28;20465;-75
2023/05/09 03:32:03;;;;;;;5.00;2.30;;;;;;;9.62;46.23;101646.47;4984187;28;20133;-72
2023/05/09 03:34:29;;;;;;;4.05;2.90;;;;;;;9.61;46.16;101634.34;5016059;28;20081;-70
2023/05/09 03:36:55;;;;;;;5.78;3.08;;;;;;;9.68;45.94;101638.50;5019977;28;20067;-70
2023/05/09 03:39:22;;;;;;;4.70;2.72;;;;;;;9.69;45.98;101637.59;5018185;28;20037;-73
2023/05/09 03:41:53;;;;;;;3.83;2.58;;;;;;;9.65;45.58;101637.72;5022958;28;20053;-74
2023/05/09 03:44:18;;;;;;;3.53;2.38;;;;;;;9.52;46.12;101632.78;5030217;28;20037;-72
2023/05/09 03:46:44;;;;;;;3.53;2.60;;;;;;;9.54;45.76;101631.00;5032169;28;20047;-70
2023/05/09 03:49:09;;;;;;;3.80;3.13;;;;;;;9.35;46.29;101633.16;5018285;28;20059;-72
2023/05/09 03:51:36;;;;;;;3.83;2.67;;;;;;;9.36;46.11;101632.25;5016575;28;20029;-71
2023/05/09 03:54:04;;;;;;;4.03;2.22;;;;;;;9.59;45.79;101643.94;5009980;28;20056;-69
2023/05/09 03:56:30;;;;;;;2.38;1.92;;;;;;;9.64;45.55;101634.25;5019402;28;20051;-70
2023/05/09 03:58:56;;;;;;;3.58;2.50;;;;;;;9.64;45.65;101630.78;5029456;28;20048;-70
2023/05/09 04:01:22;;;;;;;2.30;2.10;;;;;;;9.72;45.41;101634.94;5017063;28;20589;-70
2023/05/09 04:03:49;;;;;;;3.95;1.90;;;;;;;9.60;45.93;101638.66;5031533;28;20730;-71
2023/05/09 04:06:15;;;;;;;3.22;2.53;;;;;;;9.75;45.34;101629.63;5033789;28;20025;-70
2023/05/09 04:08:43;;;;;;;5.43;2.92;;;;;;;9.71;45.70;101622.75;5012331;28;20172;-71
2023/05/09 04:11:08;;;;;;;4.88;2.10;;;;;;;9.77;45.06;101625.22;5016894;28;20210;-70
2023/05/09 04:13:36;;;;;;;8.63;2.65;;;;;;;9.88;45.20;101626.72;5016152;28;20212;-69
2023/05/09 04:16:07;;;;;;;4.15;2.65;;;;;;;9.87;44.84;101622.41;5002613;28;20530;-71
2023/05/09 04:18:33;;;;;;;4.88;2.30;;;;;;;9.89;45.10;101620.63;5013169;28;20090;-68
2023/05/09 04:20:59;;;;;;;3.53;2.38;;;;;;;9.84;44.83;101619.88;5017962;28;20029;-70
2023/05/09 04:23:27;;;;;;;2.70;2.22;;;;;;;9.80;45.04;101619.94;4995340;28;20084;-70
2023/05/09 04:25:56;;;;;;;2.93;2.03;;;;;;;9.83;44.91;101615.56;5000240;28;20474;-70
2023/05/09 04:28:21;;;;;;;2.45;1.85;;;;;;;9.76;45.09;101620.88;5026934;28;20322;-70
2023/05/09 04:30:47;;;;;;;4.78;2.38;;;;;;;9.75;44.99;101615.72;5016711;28;20527;-70
2023/05/09 04:33:13;;;;;;;4.38;2.13;;;;;;;10.00;44.82;101622.06;5015323;28;20141;-70
2023/05/09 04:35:40;;;;;;;4.28;2.25;;;;;;;9.73;45.19;101620.13;5017992;28;20337;-71
2023/05/09 04:38:06;;;;;;;7.97;1.83;;;;;;;9.98;44.77;101613.41;5032892;28;20048;-69
2023/05/09 04:40:32;;;;;;;3.20;2.10;;;;;;;10.22;44.35;101611.91;5022583;28;20033;-69
2023/05/09 04:42:59;;;;;;;3.22;2.22;;;;;;;10.27;44.16;101610.94;5036292;28;20041;-70
2023/05/09 04:45:28;;;;;;;3.47;2.22;;;;;;;10.31;43.82;101609.97;5018977;28;20496;-71
2023/05/09 04:47:55;;;;;;;2.38;1.30;;;;;;;10.29;44.29;101619.59;5019548;28;20045;-70
2023/05/09 04:50:21;;;;;;;2.45;1.42;;;;;;;10.05;44.54;101613.25;5015657;28;20044;-70
2023/05/09 04:52:47;;;;;;;2.33;2.00;;;;;;;10.04;44.37;101612.41;5020636;28;20068;-70
2023/05/09 04:55:14;;;;;;;3.78;2.28;;;;;;;10.24;44.66;101616.25;5019634;28;20659;-70
2023/05/09 04:57:43;;;;;;;4.70;2.28;;;;;;;10.23;44.18;101610.16;5022744;28;20052;-69
2023/05/09 05:00:10;;;;;;;3.25;1.92;;;;;;;10.24;44.52;101605.81;5015243;28;20036;-69
2023/05/09 05:02:37;;;;;;;2.85;2.10;;;;;;;10.25;44.06;101610.13;5013740;28;20124;-69
2023/05/09 05:05:04;;;;;;;2.97;1.90;;;;;;;10.10;44.59;101596.56;5006341;28;20128;-68
2023/05/09 05:07:32;;;;;;;3.92;2.78;;;;;;;10.22;44.29;101598.00;5023730;28;20656;-69
2023/05/09 05:09:58;;;;;;;2.90;2.25;;;;;;;10.25;44.38;101602.28;5038488;28;20051;-69
2023/05/09 05:12:24;;;;;;;2.97;1.90;;;;;;;10.40;44.12;101597.47;5006652;28;20430;-69
2023/05/09 05:14:50;;;;;;;4.25;1.88;;;;;;;10.40;43.75;101596.63;5024632;28;20127;-67
2023/05/09 05:17:19;;;;;;;2.60;2.15;;;;;;;10.56;43.78;101595.28;5012252;28;20812;-67
2023/05/09 05:19:45;;;;;;;5.50;2.20;;;;;;;10.46;43.96;101590.38;5018750;28;20095;-69
2023/05/09 05:22:12;;;;;;;3.60;2.05;;;;;;;10.77;43.75;101585.09;5014277;28;20110;-68
2023/05/09 05:24:40;;;;;;;4.57;2.40;;;;;;;10.74;43.32;101579.97;5030172;28;20040;-70
2023/05/09 05:27:06;;;;;;;4.32;2.40;;;;;;;10.98;43.30;101584.50;5019896;28;20036;-70
2023/05/09 05:29:32;;;;;;;3.92;2.03;;;;;;;10.77;43.45;101579.88;5020233;28;20237;-70
2023/05/09 05:31:58;;;;;;;3.75;2.35;;;;;;;11.01;43.06;101584.41;5011482;28;20044;-69
2023/05/09 05:34:23;;;;;;;5.68;2.25;;;;;;;11.11;42.61;101579.75;5001403;28;20049;-71
2023/05/09 05:36:50;;;;;;;3.30;2.03;;;;;;;10.96;42.79;101578.47;4999819;28;20037;-67
2023/05/09 05:39:15;;;;;;;3.90;1.77;;;;;;;10.92;43.04;101566.38;4996042;28;20572;-69
2023/05/09 05:42:12;;;;;;;5.30;2.95;;;;;;;10.99;43.07;101574.91;4981782;28;20026;-70
2023/05/09 05:44:39;;;;;;;6.95;3.63;;;;;;;10.87;42.89;101565.66;5008671;28;20124;-70
2023/05/09 05:47:04;;;;;;;3.20;1.98;;;;;;;10.81;43.34;101563.19;5021738;28;20039;-68
2023/05/09 05:49:30;;;;;;;6.10;2.00;;;;;;;11.01;43.00;101557.41;5009964;28;20462;-71
2023/05/09 05:51:55;;;;;;;3.97;2.35;;;;;;;10.98;43.10;101547.91;5003821;28;20067;-71
2023/05/09 05:54:21;;;;;;;6.10;2.30;;;;;;;11.03;43.39;101550.34;5016014;28;20402;-70
2023/05/09 05:56:47;;;;;;;3.17;2.10;;;;;;;11.10;42.74;101553.63;5010306;28;20056;-72
2023/05/09 05:59:13;;;;;;;4.30;2.33;;;;;;;11.11;42.94;101548.38;5003745;28;20047;-68
2023/05/09 06:01:40;;;;;;;2.72;1.95;;;;;;;11.25;42.74;101542.69;5011158;28;20040;-69
2023/05/09 06:04:06;;;;;;;3.88;2.15;;;;;;;11.16;42.48;101546.47;5003554;28;20044;-71
2023/05/09 06:06:33;;;;;;;2.45;1.70;;;;;;;11.35;42.40;101546.75;4998943;28;20060;-69
2023/05/09 06:08:58;;;;;;;4.43;2.17;;;;;;;11.29;42.34;101541.69;5018649;28;20523;-73
2023/05/09 06:11:24;;;;;;;3.75;2.95;;;;;;;11.10;43.14;101535.34;5015349;28;20033;-71
2023/05/09 06:13:50;;;;;;;2.88;1.67;;;;;;;11.19;42.87;101541.13;5017294;28;20079;-77
2023/05/09 06:16:16;;;;;;;6.75;2.20;;;;;;;11.61;42.39;101537.16;5018467;28;20888;-76
2023/05/09 06:18:42;;;;;;;5.22;1.88;;;;;;;11.51;42.37;101534.00;5010207;28;20167;-76
2023/05/09 06:21:09;;;;;;;2.28;1.90;;;;;;;11.65;42.44;101528.28;4999406;28;20533;-76
2023/05/09 06:23:35;;;;;;;3.78;3.03;;;;;;;11.60;41.80;101536.31;4976632;28;20049;-76
2023/05/09 06:26:02;;;;;;;3.08;1.92;;;;;;;11.59;41.83;101528.50;4984894;28;20314;-77
2023/05/09 06:28:29;;;;;;;6.10;2.20;;;;;;;11.43;42.44;101528.16;4993715;28;20049;-76
2023/05/09 06:30:55;;;;;;;2.60;2.13;;;;;;;11.44;42.80;101522.88;5000415;28;20068;-77
2023/05/09 06:33:21;;;;;;;5.82;2.20;;;;;;;11.71;42.47;101519.34;4960065;28;20514;-76
2023/05/09 06:35:46;;;;;;;10.23;2.25;;;;;;;12.04;41.47;101510.34;4990788;28;20030;-76
2023/05/09 06:38:12;;;;;;;5.53;2.17;;;;;;;11.96;41.58;101511.53;5007761;28;20573;-73
2023/05/09 06:40:38;;;;;;;4.05;1.90;;;;;;;12.23;41.53;101515.78;5016479;28;20534;-71
2023/05/09 06:43:04;;;;;;;5.32;2.10;;;;;;;12.46;40.94;101514.06;5018036;28;20136;-71
2023/05/09 06:45:30;;;;;;;4.88;1.83;;;;;;;12.22;41.31;101503.59;5013791;28;20493;-71
2023/05/09 06:47:55;;;;;;;2.70;2.00;;;;;;;12.10;41.67;101498.78;5017685;28;20406;-71
2023/05/09 06:50:21;;;;;;;3.25;2.88;;;;;;;12.49;41.43;101495.56;5016867;28;20417;-69
2023/05/09 06:52:47;;;;;;;3.63;2.08;;;;;;;12.68;41.16;101495.72;5016475;28;20047;-71
2023/05/09 06:55:12;;;;;;;4.18;2.60;;;;;;;12.55;41.06;101495.34;5019781;28;20349;-71
2023/05/09 06:57:41;;;;;;;4.35;2.03;;;;;;;12.26;41.50;101481.56;5015046;28;20037;-71
2023/05/09 07:00:08;;;;;;;4.55;2.63;;;;;;;12.43;41.23;101473.09;5020403;28;20029;-71
2023/05/09 07:02:34;;;;;;;5.32;2.15;;;;;;;12.51;41.09;101478.03;5015248;28;20135;-71
2023/05/09 07:05:00;;;;;;;2.95;2.47;;;;;;;12.56;41.14;101476.09;5018204;28;20082;-72
2023/05/09 07:07:25;;;;;;;4.43;1.90;;;;;;;12.78;40.95;101465.66;5019798;28;20029;-71
2023/05/09 07:09:51;;;;;;;2.97;1.95;;;;;;;12.77;40.79;101471.78;5017705;28;20856;-71
2023/05/09 07:12:16;;;;;;;2.83;2.05;;;;;;;13.00;40.43;101470.00;5012679;28;20029;-71
2023/05/09 07:14:42;;;;;;;4.57;2.47;;;;;;;12.96;40.78;101461.44;5014799;28;20045;-72
2023/05/09 07:17:07;;;;;;;3.08;2.47;;;;;;;13.01;40.75;101456.00;5030643;28;21049;-71
2023/05/09 07:19:33;;;;;;;4.85;2.85;;;;;;;13.41;40.25;101459.56;5012458;28;20463;-70
2023/05/09 07:21:59;;;;;;;3.55;2.00;;;;;;;13.76;40.02;101457.19;5018008;28;20689;-72
2023/05/09 07:24:26;;;;;;;3.22;2.05;;;;;;;13.70;39.54;101451.31;5016797;28;20041;-71
2023/05/09 07:26:54;;;;;;;4.80;2.25;;;;;;;13.66;39.86;101448.88;5016099;28;20033;-72
2023/05/09 07:29:20;;;;;;;8.20;2.60;;;;;;;13.73;39.87;101447.69;5017359;28;20053;-69
2023/05/09 07:31:46;;;;;;;3.40;2.33;;;;;;;13.73;39.72;101439.81;5013653;28;20525;-69
2023/05/09 07:34:11;;;;;;;3.58;2.13;;;;;;;14.12;39.63;101433.66;5017191;28;20076;-71
2023/05/09 07:36:37;;;;;;;3.88;3.20;;;;;;;14.08;39.44;101438.22;5014074;28;20044;-68
2023/05/09 07:39:03;;;;;;;3.95;3.17;;;;;;;14.23;39.11;101436.69;5015030;28;20099;-70
2023/05/09 07:41:30;;;;;;;4.63;3.28;;;;;;;14.14;39.78;101423.94;5017610;28;20354;-71
2023/05/09 07:43:55;;;;;;;4.25;2.88;;;;;;;14.61;38.76;101418.22;5016241;28;20048;-71
2023/05/09 07:46:23;;;;;;;6.35;3.03;;;;;;;14.68;38.64;101413.50;5018918;28;20029;-68
2023/05/09 07:48:48;;;;;;;7.60;3.47;;;;;;;14.85;38.32;101415.31;5016176;28;20417;-69
2023/05/09 07:51:14;;;;;;;7.55;3.45;;;;;;;15.01;38.34;101418.03;5015824;28;20438;-69
2023/05/09 07:53:40;;;;;;;3.80;2.42;;;;;;;15.95;37.35;101409.66;5012040;28;20145;-70
2023/05/09 07:56:05;;;;;;;4.57;3.83;;;;;;;16.46;36.33;101404.22;5017114;28;20033;-70
2023/05/09 07:58:31;;;;;;;3.95;2.95;;;;;;;17.41;34.74;101401.31;5011350;28;20053;-70
2023/05/09 08:00:57;;;;;;;5.70;2.47;;;;;;;17.31;34.81;101396.66;5012982;28;20602;-70
2023/05/09 08:03:22;;;;;;;5.38;3.53;;;;;;;17.42;34.15;101392.44;5015135;28;20047;-70
2023/05/09 08:05:48;;;;;;;3.60;3.05;;;;;;;16.72;35.31;101383.41;5010018;28;20035;-69
2023/05/09 08:08:13;;;;;;;9.43;3.40;;;;;;;16.98;36.44;101379.28;5017835;28;20312;-70
2023/05/09 08:10:39;;;;;;;3.20;2.85;;;;;;;17.34;34.97;101372.72;5015216;28;20037;-72
2023/05/09 08:13:04;;;;;;;6.75;3.42;;;;;;;18.47;33.05;101373.53;5016693;28;20055;-69
2023/05/09 08:15:30;;;;;;;4.28;3.47;;;;;;;20.00;30.83;101377.22;5016845;28;20045;-72
2023/05/09 08:17:55;;;;;;;4.40;3.67;;;;;;;19.74;31.49;101375.59;5015966;28;20040;-70
2023/05/09 08:20:21;;;;;;;9.02;5.65;;;;;;;19.93;31.36;101370.66;5019459;28;20113;-70
2023/05/09 08:22:46;;;;;;;7.35;4.68;;;;;;;19.75;31.25;101362.22;5011932;28;20823;-70
2023/05/09 08:25:13;;;;;;;5.78;4.50;;;;;;;19.55;32.45;101366.28;4996823;28;20129;-70
2023/05/09 08:27:39;;;;;;;9.32;4.82;;;;;;;20.19;31.09;101359.94;4992944;28;20034;-69
2023/05/09 08:30:05;;;;;;;5.95;4.72;;;;;;;20.44;30.64;101354.56;5002167;28;20045;-71
2023/05/09 08:32:31;;;;;;;9.35;4.97;;;;;;;20.59;29.73;101349.88;4995855;28;20040;-72
2023/05/09 08:34:56;;;;;;;9.63;4.70;;;;;;;20.88;29.67;101334.41;4991209;28;20115;-70
2023/05/09 08:37:22;;;;;;;6.32;5.18;;;;;;;21.28;29.23;101320.69;4995379;28;20116;-70
2023/05/09 08:39:47;;;;;;;6.22;3.60;;;;;;;22.27;28.77;101323.44;4994477;28;20046;-69
2023/05/09 08:42:17;;;;;;;5.32;4.82;;;;;;;21.80;28.78;101323.69;5003546;28;20123;-70
2023/05/09 08:44:43;;;;;;;6.40;4.47;;;;;;;21.89;28.45;101327.41;5017714;28;20147;-70
2023/05/09 08:47:09;;;;;;;8.75;4.63;;;;;;;21.77;28.57;101319.47;5023239;28;20122;-70
2023/05/09 08:49:35;;;;;;;6.50;5.00;;;;;;;21.47;29.32;101320.13;5032247;28;20046;-70
2023/05/09 08:52:01;;;;;;;9.73;5.38;;;;;;;21.04;30.88;101319.94;5028301;28;20399;-69
2023/05/09 08:54:27;;;;;;;7.63;5.35;;;;;;;20.62;30.49;101319.59;5028509;28;20205;-70
2023/05/09 08:56:53;;;;;;;6.63;5.13;;;;;;;20.15;32.32;101321.31;5000221;28;20893;-71
2023/05/09 08:59:21;;;;;;;8.77;5.80;;;;;;;21.13;31.07;101321.88;5015468;28;20044;-71
2023/05/09 09:01:47;;;;;;;6.43;5.00;;;;;;;22.64;29.80;101312.38;5017162;28;20029;-71
2023/05/09 09:04:12;;;;;;;7.10;5.70;;;;;;;22.38;29.40;101310.09;5003020;28;20119;-70
2023/05/09 09:06:39;;;;;;;8.27;5.30;;;;;;;21.58;30.05;101315.75;4999597;28;20770;-71
2023/05/09 09:09:07;;;;;;;7.32;6.07;;;;;;;21.24;30.58;101311.25;5003109;28;20103;-70
2023/05/09 09:11:33;;;;;;;6.63;5.25;;;;;;;21.41;31.22;101301.97;5001017;28;20148;-70
2023/05/09 09:14:07;;;;;;;8.75;6.30;;;;;;;20.61;31.58;101308.13;4998142;28;20605;-69
2023/05/09 09:16:35;;;;;;;7.47;5.22;;;;;;;20.31;32.24;101303.34;5002256;28;20049;-69
2023/05/09 09:19:01;;;;;;;5.97;5.38;;;;;;;20.52;32.35;101303.53;5003099;28;20474;-69
2023/05/09 09:21:28;;;;;;;7.43;6.20;;;;;;;20.29;32.58;101297.31;4998545;28;20077;-69
2023/05/09 09:23:55;;;;;;;7.60;6.25;;;;;;;20.15;33.46;101300.09;5008653;28;20064;-70
2023/05/09 09:26:21;;;;;;;9.60;6.05;;;;;;;19.83;34.07;101290.88;5020569;28;21468;-72
2023/05/09 09:28:46;;;;;;;9.02;6.72;;;;;;;18.96;35.17;101292.59;5020266;28;20102;-69
2023/05/09 09:31:23;;;;;;;12.98;7.63;;;;;;;19.26;35.64;101283.50;5020394;28;20037;-69
2023/05/09 09:33:48;;;;;;;8.48;6.13;;;;;;;19.01;35.40;101292.28;5006316;28;20041;-70
2023/05/09 09:36:14;;;;;;;8.35;6.60;;;;;;;19.53;34.38;101293.94;5001227;28;20629;-69
2023/05/09 09:38:44;;;;;;;7.75;5.88;;;;;;;19.38;35.27;101285.25;4998810;28;20136;-69
2023/05/09 09:41:11;;;;;;;8.52;7.05;;;;;;;19.18;35.64;101276.06;5004412;28;20036;-71
2023/05/09 09:43:37;;;;;;;10.48;7.07;;;;;;;19.11;35.43;101277.47;4990380;28;20045;-72
2023/05/09 09:46:05;;;;;;;10.45;7.25;;;;;;;18.93;35.80;101276.09;5014571;28;20166;-72
2023/05/09 09:48:33;;;;;;;16.70;7.80;;;;;;;18.60;36.19;101277.41;5007953;28;20053;-70
2023/05/09 09:51:10;;;;;;;9.52;7.03;;;;;;;18.50;37.04;101271.03;5001262;28;20099;-72
2023/05/09 09:53:40;;;;;;;10.02;7.93;;;;;;;18.73;36.81;101256.25;5002544;28;20179;-72
2023/05/09 09:56:06;;;;;;;10.00;7.30;;;;;;;18.50;36.86;101257.81;5019136;28;20095;-72
2023/05/09 09:58:32;;;;;;;10.50;6.70;;;;;;;18.81;36.23;101262.72;5018742;28;20583;-73
2023/05/09 10:01:08;;;;;;;11.38;8.23;;;;;;;18.64;36.70;101249.78;5011561;28;20029;-73
2023/05/09 10:03:39;;;;;;;9.82;8.43;;;;;;;19.11;36.11;101245.66;5005899;28;20100;-71
2023/05/09 10:06:11;;;;;;;11.80;7.73;;;;;;;19.77;35.78;101250.69;4997833;28;20396;-72
2023/05/09 10:08:38;;;;;;;9.27;7.22;;;;;;;20.67;35.11;101243.09;4984248;28;20049;-72
2023/05/09 10:11:04;;;;;;;10.77;7.75;;;;;;;21.25;33.88;101222.59;4997028;28;20093;-71
2023/05/09 10:13:33;;;;;;;9.00;7.45;;;;;;;21.89;32.65;101223.63;5002564;28;20127;-70
2023/05/09 10:16:00;;;;;;;8.90;7.57;;;;;;;22.68;30.54;101213.44;5017234;28;20042;-72
2023/05/09 10:18:30;;;;;;;7.53;6.78;;;;;;;23.14;31.33;101220.09;5013078;28;20037;-71
2023/05/09 10:21:02;;;;;;;10.10;7.25;;;;;;;22.52;31.12;101202.41;4999051;28;20052;-70
2023/05/09 10:23:29;;;;;;;12.57;9.05;;;;;;;22.40;30.78;101222.94;5031022;28;20045;-70
2023/05/09 10:26:21;;;;;;;10.10;7.60;;;;;;;22.50;31.63;101215.00;5014865;28;20364;-70
2023/05/09 10:28:50;;;;;;;9.18;7.25;;;;;;;22.46;30.98;101219.75;5014513;28;20659;-71
2023/05/09 10:31:24;;;;;;;9.63;7.40;;;;;;;22.47;31.25;101216.13;5017519;28;20038;-71
2023/05/09 10:33:50;;;;;;;10.70;8.95;;;;;;;21.51;32.22;101209.03;5011618;28;20048;-71
2023/05/09 10:36:19;;;;;;;12.40;7.90;;;;;;;20.81;33.89;101207.47;5016683;28;20035;-71
2023/05/09 10:38:47;;;;;;;10.20;8.20;;;;;;;20.93;34.40;101196.78;4989187;28;20052;-71
2023/05/09 10:41:15;;;;;;;15.57;9.00;;;;;;;21.05;34.46;101202.09;5018296;28;20044;-72
2023/05/09 10:43:41;;;;;;;14.25;9.07;;;;;;;19.97;35.88;101205.00;5013328;28;20069;-71
2023/05/09 10:46:08;;;;;;;10.18;8.80;;;;;;;19.98;35.79;101208.50;5016755;28;20044;-71
2023/05/09 10:48:35;;;;;;;9.40;8.40;;;;;;;19.82;36.32;101198.19;5010789;28;20083;-71
2023/05/09 10:51:01;;;;;;;11.35;8.65;;;;;;;19.97;35.71;101193.53;5010677;28;20036;-71
2023/05/09 10:53:40;;;;;;;10.32;8.50;;;;;;;20.41;35.54;101184.88;5011735;28;20094;-71
2023/05/09 10:56:06;;;;;;;12.85;8.85;;;;;;;19.94;36.00;101186.66;4995117;28;20120;-72
2023/05/09 10:58:39;;;;;;;13.90;9.82;;;;;;;20.27;36.11;101185.09;5013561;28;20051;-71
2023/05/09 11:01:05;;;;;;;13.35;10.02;;;;;;;20.83;35.37;101173.69;5011548;28;20599;-71
2023/05/09 11:03:53;;;;;;;15.95;10.13;;;;;;;20.50;35.12;101178.84;5012618;28;20060;-73
2023/05/09 11:06:44;;;;;;;10.77;7.97;;;;;;;20.89;35.27;101171.41;5010862;28;20281;-71
2023/05/09 11:09:27;;;;;;;10.07;8.88;;;;;;;20.21;35.72;101162.50;5002632;28;20040;-71
2023/05/09 11:11:53;;;;;;;15.57;10.38;;;;;;;19.81;36.62;101175.25;4993698;28;20744;-71
2023/05/09 11:14:32;;;;;;;12.70;9.07;;;;;;;19.97;36.30;101169.66;4987960;28;20099;-71
2023/05/09 11:17:02;;;;;;;11.57;8.95;;;;;;;20.21;35.91;101167.81;5001290;28;20494;-70
2023/05/09 11:19:34;;;;;;;11.82;9.50;;;;;;;20.45;36.03;101157.13;4985247;28;20137;-71
2023/05/09 11:22:19;;;;;;;9.23;8.05;;;;;;;21.56;35.13;101157.16;4995058;28;20033;-70
2023/05/09 11:24:58;;;;;;;11.93;8.32;;;;;;;21.51;34.08;101147.84;5009970;28;20291;-71
2023/05/09 11:27:25;;;;;;;10.45;7.50;;;;;;;21.12;34.67;101144.81;5015186;28;20510;-71